Olney Springs, Colorado
Current Conditions -  °F | °C
As of 4:53 AM on Thursday 27 Nov 2014 (Local Time) from KLHX Reporting Station
Clear Clear  
Wind Chill: 14°   Ceiling: Unl
Heat Index: 23°   Visibility: 10mi
Dew Point: 19°   Wind: 8mph
Humidity: 85%   Direction: 270°W
Pressure: 30.31"   Gusts: NA
Location:  38.17°N, 103.94°W
Report Text: KLHX 271153Z AUTO 27007KT 10SM CLR M05/M07 A3031 RMK AO2 SLP282 T10501072 11039 21061 58008
Loading
Personal Weather Stations






























Interactive Weather Map New forecast layout! Learn more

10-Day Weather Forecast

Advertisements
Track Severe Weather on mobile